Time;durP1;ratioP1;P1;durP2;ratioP2;P2;SDS_P1;SDS_P2;PMS_P1;PMS_P2;Temp;Humidity;BMP_temperature;BMP_pressure;BME280_temperature;BME280_humidity;BME280_pressure;Samples;Min_cycle;Max_cycle;Signal;HPM_P1;HPM_P2
2021/08/15 00:02:53;;;;;;;18.83;4.95;;;;;;;16.96;75.66;101515.72;10196353;28;20531;-67
2021/08/15 00:07:50;;;;;;;16.90;3.75;;;;;;;16.93;75.33;101513.66;10188848;28;20048;-67
2021/08/15 00:12:48;;;;;;;14.80;4.18;;;;;;;16.93;75.38;101505.38;10188365;28;20060;-67
2021/08/15 00:17:45;;;;;;;10.18;3.75;;;;;;;16.90;75.62;101499.75;10156940;28;20461;-67
2021/08/15 00:22:43;;;;;;;13.15;3.92;;;;;;;16.92;75.46;101476.16;10184161;28;20050;-67
2021/08/15 00:27:40;;;;;;;18.52;5.22;;;;;;;16.92;75.35;101464.28;10146204;28;20078;-67
2021/08/15 00:32:38;;;;;;;13.63;4.13;;;;;;;16.85;75.56;101475.09;10179610;28;20081;-67
2021/08/15 00:37:35;;;;;;;13.70;4.78;;;;;;;16.77;75.67;101482.28;10184299;28;20080;-67
2021/08/15 00:42:32;;;;;;;18.30;4.63;;;;;;;16.79;75.92;101466.22;10169068;28;20054;-67
2021/08/15 00:47:32;;;;;;;14.50;4.72;;;;;;;16.83;75.72;101461.63;10163094;28;20082;-67
2021/08/15 00:52:29;;;;;;;17.25;4.03;;;;;;;16.75;76.46;101456.97;10154214;28;20043;-67
2021/08/15 00:57:28;;;;;;;18.33;4.32;;;;;;;16.76;76.52;101469.66;10163879;28;20077;-67
2021/08/15 01:02:25;;;;;;;13.80;4.20;;;;;;;16.73;76.88;101459.28;10134461;28;20689;-67
2021/08/15 01:07:21;;;;;;;15.68;4.15;;;;;;;16.74;76.76;101458.13;10162816;28;20125;-67
2021/08/15 01:12:18;;;;;;;13.73;4.25;;;;;;;16.79;76.56;101449.66;10169975;28;20077;-67
2021/08/15 01:17:14;;;;;;;12.75;3.90;;;;;;;16.82;76.29;101447.03;10182352;28;20069;-67
2021/08/15 01:22:11;;;;;;;20.70;5.47;;;;;;;16.76;76.49;101451.13;10164559;28;20125;-67
2021/08/15 01:27:07;;;;;;;17.00;3.88;;;;;;;16.79;76.46;101433.09;10156783;28;20165;-67
2021/08/15 01:32:04;;;;;;;14.25;4.25;;;;;;;16.83;75.93;101439.53;10152167;28;20100;-67
2021/08/15 01:37:00;;;;;;;14.85;4.60;;;;;;;16.87;75.50;101439.66;10178391;28;20112;-67
2021/08/15 01:41:57;;;;;;;13.27;4.43;;;;;;;16.90;74.97;101422.41;10180969;28;20081;-67
2021/08/15 01:46:53;;;;;;;12.55;3.88;;;;;;;16.98;74.59;101430.56;10165919;28;20049;-67
2021/08/15 01:51:50;;;;;;;11.85;4.00;;;;;;;16.93;74.00;101428.03;10182483;28;20125;-67
2021/08/15 01:56:47;;;;;;;14.20;3.25;;;;;;;17.00;73.58;101427.47;10158293;28;20390;-67
2021/08/15 02:01:43;;;;;;;11.60;3.30;;;;;;;17.01;73.44;101424.38;10137552;28;20042;-67
2021/08/15 02:06:41;;;;;;;12.68;3.33;;;;;;;16.99;73.45;101421.16;10158825;28;20416;-67
2021/08/15 02:11:37;;;;;;;11.95;3.70;;;;;;;17.02;73.33;101419.66;10186338;28;20046;-67
2021/08/15 02:16:34;;;;;;;11.75;3.58;;;;;;;17.00;72.49;101414.47;10167212;28;20054;-64
2021/08/15 02:21:30;;;;;;;9.85;3.38;;;;;;;17.04;72.28;101431.97;10155006;28;20567;-67
2021/08/15 02:26:27;;;;;;;12.05;3.63;;;;;;;17.02;71.81;101431.50;10172196;28;20504;-67
2021/08/15 02:31:23;;;;;;;12.15;3.90;;;;;;;17.02;72.72;101439.00;10167958;28;20070;-67
2021/08/15 02:36:20;;;;;;;10.77;3.92;;;;;;;16.80;73.88;101423.63;10170572;28;20058;-67
2021/08/15 02:41:16;;;;;;;12.68;3.78;;;;;;;16.87;74.43;101409.28;10132026;28;20070;-67
2021/08/15 02:46:13;;;;;;;11.70;4.50;;;;;;;16.82;74.82;101411.13;10169797;28;20121;-67
2021/08/15 02:51:09;;;;;;;11.40;4.20;;;;;;;16.81;74.95;101405.94;10126654;28;20500;-67
2021/08/15 02:56:06;;;;;;;16.70;4.72;;;;;;;16.74;75.41;101402.91;10169063;28;20455;-67
2021/08/15 03:01:02;;;;;;;11.93;3.97;;;;;;;16.78;75.59;101403.84;10157696;28;20069;-67
2021/08/15 03:05:59;;;;;;;10.77;4.07;;;;;;;16.84;75.33;101391.44;10166346;28;20093;-67
2021/08/15 03:10:56;;;;;;;13.88;4.20;;;;;;;16.77;75.45;101396.69;10190794;28;20046;-67
2021/08/15 03:15:52;;;;;;;13.18;4.72;;;;;;;16.81;74.79;101392.94;10178849;28;20180;-67
2021/08/15 03:20:50;;;;;;;9.82;3.72;;;;;;;16.86;74.04;101404.91;10182035;28;20042;-67
2021/08/15 03:25:46;;;;;;;11.30;3.30;;;;;;;16.82;73.49;101404.78;10168862;28;20112;-67
2021/08/15 03:30:42;;;;;;;16.35;4.07;;;;;;;16.79;75.30;101419.28;10177525;28;20053;-67
2021/08/15 03:35:39;;;;;;;13.85;4.53;;;;;;;16.65;77.27;101419.56;10174437;28;20050;-67
2021/08/15 03:40:35;;;;;;;17.77;4.93;;;;;;;16.56;78.55;101408.63;10184563;28;20049;-67
2021/08/15 03:45:32;;;;;;;12.80;5.57;;;;;;;16.37;80.47;101411.09;10152445;28;20046;-67
2021/08/15 03:50:28;;;;;;;17.77;6.03;;;;;;;16.25;81.33;101400.03;10175183;28;20049;-67
2021/08/15 03:55:25;;;;;;;13.90;5.45;;;;;;;16.25;82.66;101408.31;10169741;28;20075;-67
2021/08/15 04:00:21;;;;;;;16.08;6.43;;;;;;;16.29;82.71;101400.94;10172577;28;20100;-67
2021/08/15 04:05:18;;;;;;;14.65;5.50;;;;;;;16.27;82.52;101406.00;10154758;28;20082;-67
2021/08/15 04:10:15;;;;;;;15.75;5.78;;;;;;;16.30;82.63;101397.06;10157756;28;20051;-67
2021/08/15 04:15:11;;;;;;;15.13;5.80;;;;;;;16.32;82.82;101392.00;10144408;28;20101;-67
2021/08/15 04:20:08;;;;;;;15.75;6.35;;;;;;;16.24;83.34;101387.38;10148860;28;20126;-67
2021/08/15 04:25:06;;;;;;;11.20;5.70;;;;;;;16.30;83.83;101383.25;10141533;28;20069;-67
2021/08/15 04:30:04;;;;;;;14.38;6.35;;;;;;;16.28;84.03;101385.56;10175299;28;20084;-67
2021/08/15 04:35:00;;;;;;;15.13;6.68;;;;;;;16.15;84.06;101377.25;10183487;28;20108;-67
2021/08/15 04:39:57;;;;;;;14.00;6.43;;;;;;;16.11;84.10;101384.59;10151962;28;20057;-67
2021/08/15 04:44:53;;;;;;;11.27;5.63;;;;;;;16.15;84.18;101376.41;10192393;28;20038;-68
2021/08/15 04:49:50;;;;;;;12.88;5.75;;;;;;;16.11;84.72;101370.78;10145587;28;20192;-67
2021/08/15 04:54:46;;;;;;;11.55;6.28;;;;;;;16.10;84.98;101374.69;10185073;28;20043;-67
2021/08/15 04:59:44;;;;;;;13.38;5.65;;;;;;;16.02;85.31;101372.03;10140852;28;20772;-67
2021/08/15 05:04:41;;;;;;;12.05;5.85;;;;;;;15.98;85.21;101382.91;10177669;28;20532;-67
2021/08/15 05:09:37;;;;;;;11.70;6.07;;;;;;;15.85;85.96;101370.19;10135666;28;20080;-67
2021/08/15 05:14:34;;;;;;;13.95;5.80;;;;;;;15.95;85.27;101367.03;10177416;28;20091;-67
2021/08/15 05:19:31;;;;;;;11.73;5.88;;;;;;;15.95;85.62;101372.56;10164224;28;20077;-67
2021/08/15 05:24:27;;;;;;;12.15;5.85;;;;;;;15.87;85.71;101367.91;10165389;28;20089;-67
2021/08/15 05:29:24;;;;;;;12.90;7.05;;;;;;;15.88;86.41;101372.31;10161310;28;20065;-67
2021/08/15 05:34:20;;;;;;;16.02;7.80;;;;;;;15.87;86.42;101367.91;10162967;28;20041;-67
2021/08/15 05:39:17;;;;;;;11.43;7.35;;;;;;;15.85;86.79;101364.69;10156986;28;20081;-67
2021/08/15 05:44:13;;;;;;;14.68;7.30;;;;;;;15.81;86.89;101366.53;10135173;28;20048;-67
2021/08/15 05:49:10;;;;;;;16.60;7.50;;;;;;;15.82;86.99;101368.13;10153095;28;21135;-67
2021/08/15 05:54:06;;;;;;;15.80;6.95;;;;;;;15.81;86.79;101367.34;10133867;28;20045;-67
2021/08/15 05:59:03;;;;;;;13.30;7.47;;;;;;;15.84;86.80;101365.84;10151192;28;20402;-67
2021/08/15 06:04:01;;;;;;;12.70;5.80;;;;;;;15.90;86.75;101375.53;10183654;28;20050;-67
2021/08/15 06:08:57;;;;;;;14.68;7.72;;;;;;;15.93;86.77;101369.34;10178181;28;20508;-67
2021/08/15 06:13:57;;;;;;;13.75;6.93;;;;;;;15.97;86.89;101375.78;10180232;28;20475;-66
2021/08/15 06:18:53;;;;;;;12.70;6.78;;;;;;;15.97;86.08;101370.28;10175792;28;20425;-67
2021/08/15 06:23:50;;;;;;;12.52;5.68;;;;;;;16.02;85.88;101372.81;10177067;28;20440;-67
2021/08/15 06:28:47;;;;;;;13.38;5.60;;;;;;;16.09;85.78;101373.06;10151015;28;20047;-67
2021/08/15 06:33:51;;;;;;;14.90;6.60;;;;;;;16.14;85.49;101381.13;10173995;28;20562;-66
2021/08/15 06:38:48;;;;;;;10.65;4.70;;;;;;;16.09;85.09;101384.09;10138741;28;20051;-65
2021/08/15 06:43:44;;;;;;;12.90;5.50;;;;;;;16.10;84.70;101374.69;10170131;28;20467;-66
2021/08/15 06:48:44;;;;;;;10.27;5.28;;;;;;;16.10;84.42;101366.41;10173042;28;20046;-67
2021/08/15 06:53:40;;;;;;;10.70;4.50;;;;;;;16.15;84.99;101359.88;10163244;28;20405;-66
2021/08/15 06:58:37;;;;;;;10.45;4.47;;;;;;;16.20;84.61;101368.75;10166496;28;20038;-66
2021/08/15 07:03:33;;;;;;;8.70;4.70;;;;;;;16.26;84.58;101372.09;10158496;28;20069;-67
2021/08/15 07:08:30;;;;;;;9.32;4.43;;;;;;;16.32;84.12;101365.22;10167702;28;20054;-65
2021/08/15 07:13:27;;;;;;;11.32;4.50;;;;;;;16.34;84.26;101373.16;10159284;28;20049;-66
2021/08/15 07:18:23;;;;;;;8.13;3.92;;;;;;;16.24;84.32;101376.34;10175998;28;20051;-67
2021/08/15 07:23:20;;;;;;;5.80;2.90;;;;;;;16.15;82.37;101385.53;10165560;28;20165;-66
2021/08/15 07:28:16;;;;;;;6.32;3.35;;;;;;;16.14;81.72;101378.38;10161517;28;20097;-67
2021/08/15 07:33:13;;;;;;;7.88;2.95;;;;;;;16.19;82.71;101378.16;10159496;28;20116;-67
2021/08/15 07:38:10;;;;;;;8.63;3.88;;;;;;;16.16;81.90;101376.09;10173813;28;20041;-67
2021/08/15 07:43:06;;;;;;;6.72;3.50;;;;;;;16.10;80.91;101373.88;10172865;28;20054;-67
2021/08/15 07:48:03;;;;;;;8.32;3.45;;;;;;;16.05;81.48;101383.16;10174173;28;20046;-67
2021/08/15 07:53:00;;;;;;;11.65;5.72;;;;;;;16.05;81.67;101377.66;10186548;28;20058;-67
2021/08/15 07:57:56;;;;;;;8.63;3.95;;;;;;;16.03;82.88;101374.41;10149749;28;20041;-65
2021/08/15 08:02:52;;;;;;;6.78;3.85;;;;;;;16.06;82.39;101379.28;10193770;28;20049;-66
2021/08/15 08:07:50;;;;;;;8.40;3.83;;;;;;;16.04;82.93;101376.06;10172017;28;20100;-67
2021/08/15 08:12:47;;;;;;;9.90;3.78;;;;;;;16.02;82.82;101377.53;10179128;28;20045;-67
2021/08/15 08:17:46;;;;;;;10.25;4.25;;;;;;;16.07;83.62;101374.56;10170420;28;20108;-68
2021/08/15 08:22:44;;;;;;;9.07;4.88;;;;;;;16.13;83.66;101375.94;10155616;28;20072;-66
2021/08/15 08:27:40;;;;;;;11.30;5.47;;;;;;;16.18;83.97;101387.59;10166535;28;20495;-65
2021/08/15 08:32:37;;;;;;;14.55;5.82;;;;;;;16.18;84.39;101378.50;10193099;28;20066;-66
2021/08/15 08:37:34;;;;;;;16.38;5.75;;;;;;;16.25;84.72;101369.69;10180278;28;20080;-67
2021/08/15 08:42:31;;;;;;;14.35;7.05;;;;;;;16.33;84.66;101366.00;10194874;28;20052;-66
2021/08/15 08:47:29;;;;;;;18.63;8.63;;;;;;;16.38;84.16;101363.84;10150406;28;20082;-67
2021/08/15 08:52:29;;;;;;;15.23;8.05;;;;;;;16.50;83.23;101354.78;10123371;28;20043;-67
2021/08/15 08:57:27;;;;;;;12.48;7.95;;;;;;;16.66;84.00;101345.81;10190285;28;20046;-66
2021/08/15 09:02:23;;;;;;;16.40;8.23;;;;;;;16.81;83.74;101340.47;10152684;28;20047;-67
2021/08/15 09:07:23;;;;;;;13.68;7.30;;;;;;;16.94;83.15;101335.75;10161955;28;20080;-67
2021/08/15 09:12:20;;;;;;;16.63;8.50;;;;;;;17.16;83.04;101336.41;10176397;28;20054;-67
2021/08/15 09:17:16;;;;;;;17.88;9.93;;;;;;;17.16;81.47;101330.88;10160085;28;20113;-66
2021/08/15 09:22:25;;;;;;;17.90;10.48;;;;;;;17.25;80.14;101328.81;10160619;28;20105;-66
2021/08/15 09:27:28;;;;;;;18.63;10.60;;;;;;;17.48;79.79;101325.53;10157668;28;20073;-67
2021/08/15 09:32:25;;;;;;;18.83;10.88;;;;;;;17.55;80.18;101328.50;10152664;28;20365;-67
2021/08/15 09:37:21;;;;;;;20.15;10.70;;;;;;;17.68;80.50;101319.00;10153953;28;20475;-67
2021/08/15 09:42:18;;;;;;;17.77;10.90;;;;;;;17.66;81.36;101318.53;10123548;28;20066;-66
2021/08/15 09:47:14;;;;;;;24.60;14.43;;;;;;;17.73;81.77;101316.00;10150726;28;20054;-65
2021/08/15 09:52:16;;;;;;;24.42;16.38;;;;;;;17.75;80.68;101318.38;10188222;28;20073;-67
2021/08/15 09:57:32;;;;;;;24.42;15.10;;;;;;;17.65;79.74;101314.16;10160842;28;20538;-67
2021/08/15 10:02:29;;;;;;;25.58;15.20;;;;;;;17.61;78.78;101307.72;10184720;28;20054;-67
2021/08/15 10:07:25;;;;;;;25.60;17.20;;;;;;;17.61;78.76;101291.13;10152610;28;20062;-67
2021/08/15 10:12:22;;;;;;;27.83;16.95;;;;;;;17.64;79.20;101284.91;10179877;28;20076;-66
2021/08/15 10:17:20;;;;;;;31.83;17.90;;;;;;;17.65;80.11;101297.56;10145795;28;20093;-66
2021/08/15 10:22:25;;;;;;;30.98;17.48;;;;;;;17.62;80.00;101292.75;10175585;28;20054;-66
2021/08/15 10:27:40;;;;;;;33.92;18.48;;;;;;;17.65;79.50;101281.00;10159681;28;20053;-66
2021/08/15 10:32:36;;;;;;;32.65;18.83;;;;;;;17.56;79.49;101277.56;10172684;28;20038;-66
2021/08/15 10:37:35;;;;;;;34.38;19.75;;;;;;;17.60;78.44;101270.97;10157602;28;20042;-67
2021/08/15 10:42:37;;;;;;;29.30;18.13;;;;;;;17.67;79.20;101270.38;10146153;28;20051;-66
2021/08/15 10:47:35;;;;;;;33.85;18.00;;;;;;;17.70;78.54;101272.44;10159200;28;20073;-67
2021/08/15 10:52:41;;;;;;;25.20;16.77;;;;;;;17.73;78.76;101265.38;10178087;28;20412;-67
2021/08/15 10:57:49;;;;;;;24.25;15.38;;;;;;;17.86;79.44;101261.44;10192953;28;20070;-66
2021/08/15 11:02:46;;;;;;;29.80;16.52;;;;;;;18.03;78.97;101257.53;10179875;28;20393;-66
2021/08/15 11:07:44;;;;;;;34.90;15.88;;;;;;;18.13;78.63;101248.72;10164013;28;20394;-67
2021/08/15 11:13:12;;;;;;;26.60;14.57;;;;;;;18.47;76.70;101249.13;10174924;28;20489;-66
2021/08/15 11:18:10;;;;;;;26.00;14.30;;;;;;;18.90;75.84;101236.31;10135267;28;20079;-66
2021/08/15 11:23:21;;;;;;;25.67;13.85;;;;;;;20.16;75.03;101226.50;10178446;28;20080;-66
2021/08/15 11:28:18;;;;;;;24.35;11.02;;;;;;;21.07;68.66;101218.34;10183583;28;20057;-65
2021/08/15 11:33:21;;;;;;;25.02;10.75;;;;;;;22.00;66.20;101202.69;10172157;28;20493;-65
2021/08/15 11:38:18;;;;;;;18.17;9.98;;;;;;;22.53;63.91;101195.94;10172504;28;20047;-65
2021/08/15 11:43:27;;;;;;;18.73;8.48;;;;;;;23.44;61.54;101181.22;10173974;28;20105;-66
2021/08/15 11:48:29;;;;;;;18.60;9.27;;;;;;;23.49;59.20;101178.06;10172741;28;20105;-65
2021/08/15 11:53:28;;;;;;;18.00;9.82;;;;;;;23.14;60.27;101176.78;10181189;28;20108;-65
2021/08/15 11:58:24;;;;;;;16.13;8.10;;;;;;;22.79;61.11;101171.78;10156588;28;20437;-66
2021/08/15 12:03:23;;;;;;;13.85;7.60;;;;;;;22.86;61.69;101169.88;10167912;28;20074;-66
2021/08/15 12:08:31;;;;;;;18.88;8.38;;;;;;;22.88;60.71;101155.50;10157721;28;20053;-66
2021/08/15 12:13:38;;;;;;;19.38;8.95;;;;;;;22.73;60.74;101160.22;10165878;28;20042;-66
2021/08/15 12:18:37;;;;;;;15.15;7.75;;;;;;;22.65;60.86;101153.00;10177586;28;20401;-66
2021/08/15 12:23:34;;;;;;;13.85;7.13;;;;;;;23.06;60.63;101150.03;10179552;28;20671;-68
2021/08/15 12:28:32;;;;;;;18.67;9.15;;;;;;;23.81;57.90;101138.25;10164685;28;20471;-67
2021/08/15 12:33:33;;;;;;;16.27;6.55;;;;;;;24.62;56.84;101135.75;10178566;28;20434;-66
2021/08/15 12:38:30;;;;;;;11.32;5.78;;;;;;;25.48;54.27;101132.53;10177097;28;20050;-66
2021/08/15 12:43:27;;;;;;;13.10;7.05;;;;;;;26.05;55.14;101122.91;10154159;28;20078;-66
2021/08/15 12:48:30;;;;;;;18.55;7.65;;;;;;;25.94;51.48;101117.41;10178410;28;20053;-67
2021/08/15 12:53:32;;;;;;;15.68;7.05;;;;;;;25.46;52.73;101115.34;10163289;28;20054;-66
2021/08/15 12:58:29;;;;;;;16.50;7.77;;;;;;;24.87;54.29;101102.09;10176389;28;20602;-66
2021/08/15 13:03:25;;;;;;;12.05;5.55;;;;;;;24.92;54.39;101096.88;10150494;28;20513;-66
2021/08/15 13:08:22;;;;;;;13.77;6.13;;;;;;;24.95;56.15;101086.91;10142817;28;20133;-66
2021/08/15 13:13:18;;;;;;;11.32;5.13;;;;;;;24.81;52.86;101089.75;10145079;28;20077;-66
2021/08/15 13:18:15;;;;;;;9.52;5.05;;;;;;;24.64;53.51;101081.03;10164037;28;20050;-66
2021/08/15 13:23:12;;;;;;;12.48;5.93;;;;;;;24.05;52.84;101076.00;10185664;28;20054;-66
2021/08/15 13:28:08;;;;;;;12.43;5.50;;;;;;;23.93;55.08;101068.06;10154149;28;20058;-66
2021/08/15 13:33:05;;;;;;;13.60;6.65;;;;;;;23.77;55.68;101064.88;10186468;28;20069;-66
2021/08/15 13:38:08;;;;;;;15.40;7.07;;;;;;;23.78;54.54;101049.72;10283720;28;20628;-66
2021/08/15 13:43:04;;;;;;;11.60;5.30;;;;;;;23.84;57.13;101043.31;10266481;28;20084;-66
2021/08/15 13:48:01;;;;;;;10.48;6.13;;;;;;;24.03;54.39;101039.28;10269709;28;20148;-67
2021/08/15 13:52:57;;;;;;;11.88;6.32;;;;;;;24.20;56.11;101031.25;10269181;28;20065;-67
2021/08/15 13:57:54;;;;;;;10.38;5.03;;;;;;;24.37;54.84;101027.63;10258412;28;20466;-66
2021/08/15 14:02:50;;;;;;;10.60;5.28;;;;;;;24.19;54.03;101015.72;10269815;28;20511;-66
2021/08/15 14:07:47;;;;;;;14.55;5.82;;;;;;;24.09;55.35;101014.53;10246583;28;20053;-66
2021/08/15 14:12:43;;;;;;;9.90;4.65;;;;;;;23.91;55.58;100993.03;10231295;28;20069;-66
2021/08/15 14:17:41;;;;;;;10.50;5.18;;;;;;;24.06;55.06;100996.56;10247192;28;20073;-66
2021/08/15 14:22:39;;;;;;;12.98;5.50;;;;;;;24.07;54.71;100986.22;10269156;28;20361;-66
2021/08/15 14:27:36;;;;;;;9.85;4.70;;;;;;;23.87;54.32;100975.50;10232428;28;20103;-66
2021/08/15 14:32:33;;;;;;;11.57;4.72;;;;;;;23.67;54.37;100966.75;10258603;28;20077;-66
2021/08/15 14:37:30;;;;;;;9.48;4.85;;;;;;;23.69;55.08;100964.34;10265938;28;20087;-67
2021/08/15 14:42:26;;;;;;;12.25;5.05;;;;;;;23.47;54.79;100951.63;10254419;28;20054;-67
2021/08/15 14:47:23;;;;;;;8.27;4.35;;;;;;;23.50;56.59;100942.44;10248178;28;20049;-66
2021/08/15 14:52:19;;;;;;;10.18;4.22;;;;;;;23.62;56.44;100936.44;10220206;28;20049;-67
2021/08/15 14:57:16;;;;;;;10.18;4.70;;;;;;;23.61;55.15;100925.69;10234697;28;20073;-67
2021/08/15 15:02:12;;;;;;;11.57;4.78;;;;;;;23.64;57.21;100914.50;10218937;28;20475;-66
2021/08/15 15:07:09;;;;;;;9.70;5.10;;;;;;;23.71;55.62;100900.53;10233470;28;20061;-67
2021/08/15 15:12:06;;;;;;;7.35;3.97;;;;;;;23.66;53.67;100909.31;10215087;28;20508;-67
2021/08/15 15:17:05;;;;;;;10.45;4.20;;;;;;;23.59;55.16;100892.59;10232236;28;20525;-66
2021/08/15 15:22:02;;;;;;;9.45;3.95;;;;;;;23.47;55.91;100896.63;10229334;28;20136;-66
2021/08/15 15:26:58;;;;;;;8.93;4.55;;;;;;;23.58;53.68;100893.81;10229278;28;20081;-67
2021/08/15 15:31:57;;;;;;;9.02;4.05;;;;;;;23.72;53.52;100885.38;10225026;28;20049;-66
2021/08/15 15:36:53;;;;;;;9.02;4.50;;;;;;;23.77;53.02;100877.84;10220815;28;20052;-66
2021/08/15 15:41:50;;;;;;;10.85;4.13;;;;;;;23.67;52.32;100877.44;10222573;28;20080;-67
2021/08/15 15:46:46;;;;;;;9.15;4.20;;;;;;;23.61;53.28;100865.09;10219700;28;20092;-66
2021/08/15 15:51:42;;;;;;;10.57;4.25;;;;;;;23.57;53.01;100850.34;10197817;28;20058;-67
2021/08/15 15:56:39;;;;;;;8.23;4.13;;;;;;;23.49;53.01;100848.78;10222398;28;20045;-67
2021/08/15 16:01:35;;;;;;;10.93;4.65;;;;;;;23.47;53.29;100846.41;10237209;28;20514;-66
2021/08/15 16:06:34;;;;;;;8.48;4.47;;;;;;;23.46;52.97;100838.41;10236581;28;20052;-66
2021/08/15 16:11:31;;;;;;;8.43;4.40;;;;;;;23.64;52.56;100839.16;10225231;28;20054;-66
2021/08/15 16:16:27;;;;;;;8.23;3.88;;;;;;;24.03;50.82;100834.63;10224680;28;20053;-67
2021/08/15 16:21:25;;;;;;;9.30;4.70;;;;;;;24.30;50.34;100823.69;10225880;28;20769;-67
2021/08/15 16:26:22;;;;;;;6.45;3.85;;;;;;;24.43;49.45;100812.81;10223930;28;20053;-67
2021/08/15 16:31:18;;;;;;;10.15;3.95;;;;;;;24.70;49.33;100807.44;10223779;28;20534;-67
2021/08/15 16:36:16;;;;;;;8.73;4.65;;;;;;;24.88;48.61;100799.69;10236900;28;20819;-67
2021/08/15 16:41:12;;;;;;;10.30;4.63;;;;;;;24.74;49.07;100797.81;10235992;28;20150;-67
2021/08/15 16:46:09;;;;;;;8.15;4.50;;;;;;;24.69;49.14;100801.06;10232367;28;20088;-66
2021/08/15 16:51:06;;;;;;;7.65;3.83;;;;;;;24.61;48.96;100793.94;10204801;28;20045;-67
2021/08/15 16:56:07;;;;;;;7.93;4.03;;;;;;;24.70;47.83;100779.47;10226448;28;20416;-66
2021/08/15 17:01:05;;;;;;;7.85;4.03;;;;;;;24.61;48.79;100781.97;10236138;28;20091;-66
2021/08/15 17:06:01;;;;;;;8.73;3.92;;;;;;;24.22;48.62;100780.22;10234974;28;20049;-66
2021/08/15 17:10:58;;;;;;;10.20;4.45;;;;;;;24.03;48.75;100771.19;10235467;28;20099;-66
2021/08/15 17:15:54;;;;;;;9.10;4.22;;;;;;;23.91;48.81;100763.28;10234095;28;20041;-66
2021/08/15 17:20:51;;;;;;;7.57;4.10;;;;;;;23.79;49.36;100755.38;10235501;28;20199;-66
2021/08/15 17:25:49;;;;;;;9.07;4.32;;;;;;;23.67;48.64;100749.03;10220215;28;20095;-66
2021/08/15 17:30:47;;;;;;;11.10;4.80;;;;;;;23.57;48.85;100738.72;10234969;28;20053;-66
2021/08/15 17:35:44;;;;;;;8.27;3.65;;;;;;;23.49;48.68;100731.59;10218282;28;20046;-66
2021/08/15 17:40:40;;;;;;;10.15;4.05;;;;;;;23.44;48.71;100718.03;10233987;28;20073;-66
2021/08/15 17:45:39;;;;;;;7.60;3.83;;;;;;;23.43;48.92;100727.63;10234272;28;20415;-66
2021/08/15 17:50:38;;;;;;;8.13;3.50;;;;;;;23.38;48.27;100709.31;10233333;28;20511;-65
2021/08/15 17:55:36;;;;;;;8.23;4.18;;;;;;;23.33;48.99;100717.31;10234710;28;20042;-66
2021/08/15 18:00:33;;;;;;;9.43;4.32;;;;;;;23.29;48.87;100695.00;10232616;28;20045;-66
2021/08/15 18:05:29;;;;;;;8.25;3.70;;;;;;;23.22;49.25;100712.56;10222213;28;20053;-66
2021/08/15 18:10:26;;;;;;;8.43;3.30;;;;;;;23.16;48.76;100703.06;10228119;28;20052;-65
2021/08/15 18:15:23;;;;;;;7.72;3.90;;;;;;;23.05;48.69;100691.13;10217507;28;20045;-65
2021/08/15 18:20:20;;;;;;;6.28;3.40;;;;;;;22.96;49.77;100687.94;10226104;28;20049;-65
2021/08/15 18:25:18;;;;;;;10.88;3.55;;;;;;;22.85;49.91;100688.75;10240581;28;20045;-65
2021/08/15 18:30:15;;;;;;;7.20;3.50;;;;;;;22.76;49.92;100679.25;10241097;28;20073;-66
2021/08/15 18:35:12;;;;;;;6.35;3.22;;;;;;;22.69;50.09;100685.63;10230474;28;20136;-65
2021/08/15 18:40:11;;;;;;;7.03;3.25;;;;;;;22.60;50.85;100693.59;10241004;28;20558;-65
2021/08/15 18:45:08;;;;;;;7.43;2.80;;;;;;;22.53;50.53;100688.84;10232033;28;20084;-65
2021/08/15 18:50:06;;;;;;;6.00;3.30;;;;;;;22.47;50.53;100694.03;10228511;28;20137;-65
2021/08/15 18:55:04;;;;;;;7.05;3.80;;;;;;;22.42;50.78;100705.59;10224195;28;20111;-66
2021/08/15 19:00:00;;;;;;;6.20;3.55;;;;;;;22.36;51.49;100709.16;10222867;28;20072;-65
2021/08/15 19:04:56;;;;;;;6.20;3.28;;;;;;;22.31;52.24;100704.78;10222047;28;20092;-66
2021/08/15 19:09:53;;;;;;;6.38;3.50;;;;;;;22.24;52.47;100705.59;10228997;28;20049;-65
2021/08/15 19:14:49;;;;;;;7.43;3.55;;;;;;;22.22;52.79;100701.59;10236864;28;20096;-65
2021/08/15 19:19:46;;;;;;;6.47;3.75;;;;;;;22.14;52.57;100700.78;10218155;28;20045;-64
2021/08/15 19:24:43;;;;;;;8.80;3.55;;;;;;;22.09;53.10;100698.38;10235793;28;20041;-65
2021/08/15 19:29:39;;;;;;;7.28;3.78;;;;;;;22.01;54.24;100697.59;10215275;28;20038;-65
2021/08/15 19:34:35;;;;;;;7.22;3.78;;;;;;;21.97;53.96;100696.00;10236898;28;20458;-66
2021/08/15 19:39:32;;;;;;;8.25;3.38;;;;;;;21.91;53.71;100701.16;10238616;28;20077;-66
2021/08/15 19:44:29;;;;;;;9.52;3.80;;;;;;;21.86;54.16;100701.53;10226985;28;20049;-67
2021/08/15 19:49:26;;;;;;;7.20;3.03;;;;;;;21.81;53.69;100701.94;10238032;28;20045;-65
2021/08/15 19:54:22;;;;;;;7.40;3.25;;;;;;;21.77;53.34;100703.91;10236954;28;20049;-65
2021/08/15 19:59:19;;;;;;;6.22;3.30;;;;;;;21.72;53.13;100707.09;10237689;28;20104;-65
2021/08/15 20:04:17;;;;;;;8.65;3.03;;;;;;;21.70;52.74;100693.59;10208518;28;20095;-67
2021/08/15 20:09:13;;;;;;;5.75;3.13;;;;;;;21.68;53.08;100700.75;10232727;28;20061;-64
2021/08/15 20:14:10;;;;;;;6.35;2.70;;;;;;;21.64;52.97;100684.81;10237653;28;20399;-66
2021/08/15 20:19:06;;;;;;;6.22;2.90;;;;;;;21.58;53.16;100691.97;10230385;28;20743;-66
2021/08/15 20:24:03;;;;;;;7.20;2.67;;;;;;;21.50;53.39;100684.78;10237269;28;20037;-65
2021/08/15 20:28:59;;;;;;;8.65;3.05;;;;;;;21.46;53.64;100689.53;10216728;28;20065;-66
2021/08/15 20:33:55;;;;;;;6.47;2.90;;;;;;;21.40;53.67;100680.00;10236983;28;20069;-66
2021/08/15 20:38:53;;;;;;;7.43;2.75;;;;;;;21.31;54.03;100676.75;10202270;28;20081;-66
2021/08/15 20:43:49;;;;;;;6.97;2.67;;;;;;;21.21;54.63;100679.13;10229214;28;20061;-65
2021/08/15 20:48:46;;;;;;;5.88;2.63;;;;;;;21.16;54.88;100665.56;10236543;28;20046;-66
2021/08/15 20:53:42;;;;;;;6.82;3.13;;;;;;;21.11;55.16;100667.94;10234993;28;20080;-65
2021/08/15 20:58:39;;;;;;;5.65;2.55;;;;;;;21.03;55.80;100672.69;10235962;28;20041;-64
2021/08/15 21:03:35;;;;;;;8.02;3.00;;;;;;;20.92;56.34;100661.50;10215454;28;20053;-65
2021/08/15 21:08:32;;;;;;;6.35;2.65;;;;;;;20.89;56.72;100661.50;10235869;28;20080;-65
2021/08/15 21:13:28;;;;;;;5.95;2.70;;;;;;;20.79;57.12;100647.19;10207285;28;20045;-65
2021/08/15 21:18:25;;;;;;;7.43;3.30;;;;;;;20.77;57.41;100649.53;10225003;28;20100;-66
2021/08/15 21:23:21;;;;;;;6.60;3.08;;;;;;;20.70;57.95;100638.41;10227592;28;20080;-65
2021/08/15 21:28:18;;;;;;;7.63;3.17;;;;;;;20.62;58.69;100625.63;10233709;28;20122;-65
2021/08/15 21:33:14;;;;;;;8.50;3.05;;;;;;;20.55;59.24;100633.91;10235204;28;20045;-65
2021/08/15 21:38:10;;;;;;;6.22;3.25;;;;;;;20.55;58.98;100620.81;10213967;28;20482;-65
2021/08/15 21:43:07;;;;;;;7.45;3.35;;;;;;;20.54;59.88;100613.66;10222525;28;20073;-65
2021/08/15 21:48:04;;;;;;;8.27;3.15;;;;;;;20.52;61.25;100609.69;10232808;28;20053;-65
2021/08/15 21:53:01;;;;;;;6.53;3.00;;;;;;;20.49;61.07;100627.13;10235487;28;20103;-65
2021/08/15 21:57:57;;;;;;;7.47;3.45;;;;;;;20.49;60.64;100632.66;10228627;28;20049;-65
2021/08/15 22:02:54;;;;;;;11.35;3.85;;;;;;;20.42;61.43;100604.84;10235780;28;20539;-65
2021/08/15 22:07:50;;;;;;;8.93;3.90;;;;;;;20.28;62.00;100609.13;10241705;28;20411;-65
2021/08/15 22:12:48;;;;;;;7.65;3.53;;;;;;;20.18;62.83;100602.34;10230854;28;20544;-65
2021/08/15 22:17:44;;;;;;;7.35;3.63;;;;;;;20.14;63.85;100595.16;10240439;28;20058;-65
2021/08/15 22:22:41;;;;;;;8.88;4.53;;;;;;;20.07;64.64;100614.53;10229701;28;20096;-66
2021/08/15 22:27:39;;;;;;;10.43;4.38;;;;;;;19.94;66.98;100620.41;10239249;28;20093;-66
2021/08/15 22:32:36;;;;;;;13.40;5.65;;;;;;;19.80;69.02;100603.63;10240759;28;20049;-67
2021/08/15 22:37:33;;;;;;;12.40;5.10;;;;;;;19.68;70.80;100606.66;10241311;28;20050;-65